Terminal Aerodrome Forecast
Issued by NWS Twin Cities, MN

Home | Current Version | Previous Version | Text Only | Print | Product List | Glossary Off
Versions: 1 2 3 4 5 6 7 8 9 10 11 12

633
FTUS43 KMPX 192338
TAFSTC
TAF
KSTC 192338Z 2000/2024 35004KT P6SM BKN250
     FM200900 36002KT P6SM BKN150
     FM201600 26007KT P6SM SCT200=

USA.gov is the U.S. government's official web portal to all federal, state and local government web resources and services.